createdAt,value
2019-03-10T00:00:31.333Z,77.45
2019-03-10T00:02:59.916Z,77.61
2019-03-10T00:05:28.519Z,77.58
2019-03-10T00:07:58.839Z,77.49
2019-03-10T00:10:27.414Z,77.28
2019-03-10T00:12:56.000Z,77.47
2019-03-10T00:15:24.616Z,77.65
2019-03-10T00:17:53.244Z,77.49
2019-03-10T00:20:21.894Z,77.65
2019-03-10T00:22:50.407Z,77.88
2019-03-10T00:25:19.064Z,77.32
2019-03-10T00:27:47.686Z,77.74
2019-03-10T00:30:18.387Z,77.73
2019-03-10T00:32:46.944Z,77.54
2019-03-10T00:35:15.573Z,77.56
2019-03-10T00:37:44.214Z,78.02
2019-03-10T00:40:49.189Z,77.47
2019-03-10T00:43:29.491Z,77.06
2019-03-10T00:46:01.015Z,76.92
2019-03-10T00:48:52.172Z,76.55
2019-03-10T00:54:21.435Z,77.63
2019-03-10T00:56:49.977Z,77.94
2019-03-10T00:59:18.618Z,78.07
2019-03-10T01:01:47.121Z,78.23
2019-03-10T01:04:15.692Z,78.28
2019-03-10T01:06:44.256Z,77.91
2019-03-10T01:09:12.878Z,77.79
2019-03-10T01:11:41.695Z,77.45
2019-03-10T01:14:10.174Z,77.25
2019-03-10T01:16:39.088Z,77.36
2019-03-10T01:19:07.594Z,77.38
2019-03-10T01:21:38.016Z,77.12
2019-03-10T01:24:06.527Z,76.88
2019-03-10T01:26:35.071Z,76.90
2019-03-10T01:29:03.714Z,77.24
2019-03-10T01:31:35.228Z,77.31
2019-03-10T01:34:25.981Z,77.09
2019-03-10T01:36:54.448Z,77.14
2019-03-10T01:39:24.493Z,77.35
2019-03-10T01:41:52.984Z,77.21
2019-03-10T01:44:21.467Z,77.14
2019-03-10T01:46:49.981Z,76.95
2019-03-10T01:49:18.445Z,77.17
2019-03-10T01:51:46.991Z,77.34
2019-03-10T01:54:15.602Z,77.08
2019-03-10T01:56:44.215Z,76.98
2019-03-10T01:59:12.772Z,76.94
2019-03-10T02:01:41.327Z,76.81
2019-03-10T02:04:09.807Z,76.91
2019-03-10T02:06:38.290Z,76.56
2019-03-10T02:09:07.232Z,77.05
2019-03-10T02:11:35.737Z,77.25
2019-03-10T02:14:04.277Z,76.86
2019-03-10T02:16:32.799Z,76.94
2019-03-10T02:19:01.287Z,77.29
2019-03-10T02:21:29.855Z,77.46
2019-03-10T02:23:58.306Z,77.30
2019-03-10T02:26:26.827Z,77.54
2019-03-10T02:28:55.294Z,77.43
2019-03-10T02:31:23.805Z,77.62
2019-03-10T02:33:52.358Z,77.82
2019-03-10T02:36:20.854Z,77.81
2019-03-10T02:38:49.401Z,77.78
2019-03-10T02:41:17.883Z,77.83
2019-03-10T02:43:46.337Z,77.96
2019-03-10T02:46:14.903Z,77.98
2019-03-10T02:48:43.358Z,77.95
2019-03-10T02:51:11.839Z,77.80
2019-03-10T02:53:40.360Z,77.67
2019-03-10T02:56:08.852Z,77.54
2019-03-10T02:58:37.319Z,77.64
2019-03-10T03:01:07.155Z,77.42
2019-03-10T03:03:37.354Z,77.37
2019-03-10T03:06:09.102Z,76.93
2019-03-10T03:08:37.592Z,77.00
2019-03-10T03:11:06.145Z,76.20
2019-03-10T03:13:34.671Z,76.40
2019-03-10T03:16:03.122Z,76.32
2019-03-10T03:18:31.614Z,76.36
2019-03-10T03:21:00.393Z,75.87
2019-03-10T03:23:28.864Z,75.67
2019-03-10T03:25:57.363Z,75.82
2019-03-10T03:28:25.818Z,75.91
2019-03-10T03:30:54.488Z,75.49
2019-03-10T03:33:22.995Z,75.95
2019-03-10T03:35:59.356Z,75.85
2019-03-10T03:38:33.923Z,76.11
2019-03-10T03:41:03.185Z,76.15
2019-03-10T03:43:31.811Z,76.97
2019-03-10T03:46:00.281Z,76.51
2019-03-10T03:48:28.865Z,76.59
2019-03-10T03:50:57.679Z,76.77
2019-03-10T03:54:26.824Z,77.40
2019-03-10T03:56:55.327Z,77.49
2019-03-10T03:59:23.799Z,77.53
2019-03-10T04:01:56.775Z,77.59
2019-03-10T04:04:25.244Z,77.83
2019-03-10T04:06:53.753Z,77.97
2019-03-10T04:09:22.282Z,78.45
2019-03-10T04:11:50.751Z,78.48
2019-03-10T04:14:19.293Z,78.74
2019-03-10T04:16:47.781Z,78.67
2019-03-10T04:19:16.277Z,78.56
2019-03-10T04:21:44.775Z,78.69
2019-03-10T04:24:13.216Z,78.54
2019-03-10T04:26:43.233Z,78.52
2019-03-10T04:29:11.754Z,78.54
2019-03-10T04:31:40.288Z,78.89
2019-03-10T04:34:08.791Z,78.90
2019-03-10T04:36:37.292Z,79.01
2019-03-10T04:39:06.718Z,78.83
2019-03-10T04:41:35.280Z,79.05
2019-03-10T04:44:03.756Z,79.09
2019-03-10T04:46:32.232Z,79.02
2019-03-10T04:49:00.722Z,78.90
2019-03-10T04:51:32.599Z,78.85
2019-03-10T04:54:01.171Z,78.91
2019-03-10T04:56:34.458Z,79.13
2019-03-10T04:59:11.944Z,79.07
2019-03-10T05:01:40.426Z,79.13
2019-03-10T05:04:08.956Z,78.88
2019-03-10T05:06:37.436Z,78.81
2019-03-10T05:09:08.153Z,79.00
2019-03-10T05:11:38.252Z,79.12
2019-03-10T05:14:06.735Z,78.96
2019-03-10T05:16:35.259Z,79.07
2019-03-10T05:19:03.763Z,79.15
2019-03-10T05:21:32.234Z,79.06
2019-03-10T05:24:03.681Z,79.33
2019-03-10T05:26:32.193Z,79.20
2019-03-10T05:29:00.722Z,79.21
2019-03-10T05:31:32.193Z,79.36
2019-03-10T05:34:00.676Z,79.34
2019-03-10T05:36:29.161Z,79.38
2019-03-10T05:38:57.647Z,79.53
2019-03-10T05:41:26.200Z,79.49
2019-03-10T05:43:54.685Z,79.45
2019-03-10T05:46:23.166Z,79.32
2019-03-10T05:48:51.670Z,79.26
2019-03-10T05:51:20.220Z,79.13
2019-03-10T05:53:48.682Z,79.13
2019-03-10T05:56:17.164Z,79.07
2019-03-10T05:58:45.656Z,79.17
2019-03-10T06:01:14.169Z,79.04
2019-03-10T06:03:42.632Z,79.03
2019-03-10T06:06:11.286Z,79.17
2019-03-10T06:08:39.758Z,78.83
2019-03-10T06:11:08.367Z,78.98
2019-03-10T06:13:37.577Z,78.90
2019-03-10T06:16:06.187Z,78.66
2019-03-10T06:18:34.669Z,78.66
2019-03-10T06:21:03.252Z,78.56
2019-03-10T06:23:31.725Z,78.52
2019-03-10T06:26:00.299Z,78.51
2019-03-10T06:28:28.787Z,78.32
2019-03-10T06:30:57.278Z,78.46
2019-03-10T06:33:25.757Z,78.37
2019-03-10T06:35:54.239Z,78.25
2019-03-10T06:38:22.767Z,78.35
2019-03-10T06:40:54.192Z,78.20
2019-03-10T06:43:24.964Z,78.35
2019-03-10T06:45:53.436Z,78.40
2019-03-10T06:48:21.934Z,78.35
2019-03-10T06:50:51.929Z,78.25
2019-03-10T06:53:22.947Z,78.07
2019-03-10T06:55:51.414Z,77.90
2019-03-10T06:58:19.918Z,78.10
2019-03-10T07:00:48.374Z,78.08
2019-03-10T07:03:17.339Z,78.00
2019-03-10T07:05:45.836Z,77.44
2019-03-10T07:08:14.327Z,77.50
2019-03-10T07:10:42.877Z,77.09
2019-03-10T07:13:11.358Z,76.27
2019-03-10T07:15:40.185Z,76.20
2019-03-10T07:18:08.673Z,74.98
2019-03-10T07:20:37.213Z,73.23
2019-03-10T07:23:07.345Z,72.55
2019-03-10T07:25:36.215Z,72.42
2019-03-10T07:28:10.744Z,71.55
2019-03-10T07:30:55.931Z,70.83
2019-03-10T07:33:44.060Z,71.17
2019-03-10T07:36:14.319Z,68.36
2019-03-10T07:38:44.449Z,67.95
2019-03-10T07:41:29.306Z,68.15
2019-03-10T07:44:05.371Z,68.59
2019-03-10T07:46:53.581Z,67.77
2019-03-10T07:49:29.563Z,68.86
2019-03-10T07:52:20.146Z,69.30
2019-03-10T07:54:56.263Z,68.66
2019-03-10T07:57:42.525Z,68.29
2019-03-10T08:00:18.877Z,67.50
2019-03-10T08:02:50.458Z,66.70
2019-03-10T08:05:22.186Z,66.34
2019-03-10T08:07:58.160Z,65.38
2019-03-10T08:10:34.167Z,62.74
2019-03-10T08:13:04.298Z,63.27
2019-03-10T08:15:50.622Z,61.92
2019-03-10T08:18:23.370Z,59.54
2019-03-10T08:21:05.483Z,60.33
2019-03-10T08:23:40.916Z,59.93
2019-03-10T08:26:13.935Z,57.26
2019-03-10T08:33:18.096Z,55.19
2019-03-10T08:46:05.708Z,56.40
2019-03-10T08:48:37.349Z,56.51
2019-03-10T08:51:31.459Z,56.97
2019-03-10T08:57:53.653Z,55.39
2019-03-10T09:01:02.066Z,54.08
2019-03-10T09:04:08.112Z,56.66
2019-03-10T09:07:12.029Z,57.14
2019-03-10T09:13:11.566Z,57.90
2019-03-10T09:16:01.337Z,58.15
2019-03-10T09:27:58.453Z,59.93
2019-03-10T09:30:34.526Z,59.72
2019-03-10T09:33:07.883Z,59.38
2019-03-10T09:35:54.237Z,59.73
2019-03-10T09:38:27.332Z,60.27
2019-03-10T09:41:03.067Z,60.68
2019-03-10T09:43:49.487Z,61.16
2019-03-10T09:46:24.142Z,61.69
2019-03-10T09:48:57.131Z,61.75
2019-03-10T09:51:30.085Z,62.30
2019-03-10T09:54:09.011Z,62.03
2019-03-10T09:56:47.844Z,62.21
2019-03-10T09:59:19.020Z,62.32
2019-03-10T10:01:53.278Z,61.39
2019-03-10T10:04:23.495Z,61.34
2019-03-10T10:07:05.341Z,61.72
2019-03-10T10:09:35.476Z,61.39
2019-03-10T10:12:20.823Z,61.57
2019-03-10T10:15:21.236Z,62.03
2019-03-10T10:17:54.191Z,61.31
2019-03-10T10:20:33.525Z,60.48
2019-03-10T10:23:04.354Z,60.47
2019-03-10T10:25:43.225Z,60.61
2019-03-10T10:28:18.139Z,60.63
2019-03-10T10:31:00.177Z,59.35
2019-03-10T10:33:46.848Z,59.21
2019-03-10T10:36:17.371Z,58.30
2019-03-10T10:38:50.327Z,59.58
2019-03-10T10:41:20.483Z,58.34
2019-03-10T10:43:53.480Z,58.65
2019-03-10T10:46:39.663Z,57.44
2019-03-10T10:49:11.975Z,58.04
2019-03-10T10:52:00.272Z,58.48
2019-03-10T10:54:32.961Z,57.79
2019-03-10T10:57:03.154Z,57.62
2019-03-10T10:59:39.230Z,56.11
2019-03-10T11:02:12.336Z,56.59
2019-03-10T11:04:48.385Z,56.83
2019-03-10T11:07:33.663Z,57.76
2019-03-10T11:10:12.876Z,56.59
2019-03-10T11:12:55.263Z,56.41
2019-03-10T11:15:25.601Z,56.66
2019-03-10T11:18:08.516Z,56.81
2019-03-10T11:20:32.732Z,57.71
2019-03-10T11:23:22.909Z,57.43
2019-03-10T11:25:58.898Z,57.67
2019-03-10T11:28:28.998Z,57.22
2019-03-10T11:31:01.791Z,57.60
2019-03-10T11:33:47.958Z,57.09
2019-03-10T11:36:18.090Z,57.29
2019-03-10T11:39:04.464Z,57.04
2019-03-10T11:41:48.100Z,58.24
2019-03-10T11:44:33.696Z,56.54
2019-03-10T11:47:06.556Z,56.81
2019-03-10T11:49:36.672Z,55.20
2019-03-10T11:52:19.044Z,54.63
2019-03-10T11:54:54.954Z,55.99
2019-03-10T11:57:41.285Z,56.71
2019-03-10T12:00:14.503Z,56.11
2019-03-10T12:03:01.116Z,55.08
2019-03-10T12:05:37.239Z,54.47
2019-03-10T12:08:07.454Z,54.12
2019-03-10T12:10:37.877Z,55.12
2019-03-10T12:13:06.889Z,55.44
2019-03-10T12:15:40.818Z,53.31
2019-03-10T12:18:09.288Z,51.77
2019-03-10T12:20:37.844Z,53.60
2019-03-10T12:23:06.307Z,52.27
2019-03-10T12:25:39.895Z,52.56
2019-03-10T12:28:08.646Z,52.40
2019-03-10T12:30:40.124Z,52.76
2019-03-10T12:33:11.558Z,53.67
2019-03-10T12:49:28.464Z,51.57
2019-03-10T12:51:57.116Z,51.64
2019-03-10T12:54:25.559Z,51.96
2019-03-10T12:56:58.614Z,51.01
2019-03-10T12:59:27.068Z,51.33
2019-03-10T13:01:55.569Z,50.80
2019-03-10T13:04:24.070Z,51.72
2019-03-10T13:06:55.330Z,51.22
2019-03-10T13:09:23.797Z,51.03
2019-03-10T13:11:52.259Z,51.97
2019-03-10T13:14:20.771Z,54.14
2019-03-10T13:16:49.241Z,54.16
2019-03-10T13:19:17.736Z,54.43
2019-03-10T13:21:46.349Z,55.01
2019-03-10T13:24:15.011Z,55.38
2019-03-10T13:26:47.498Z,54.98
2019-03-10T13:29:17.977Z,53.66
2019-03-10T13:31:46.459Z,54.47
2019-03-10T13:34:14.941Z,54.51
2019-03-10T13:36:46.379Z,52.15
2019-03-10T13:39:16.511Z,52.11
2019-03-10T13:41:44.972Z,51.77
2019-03-10T13:44:13.452Z,52.11
2019-03-10T13:46:43.881Z,51.78
2019-03-10T13:49:12.212Z,47.67
2019-03-10T13:51:41.142Z,50.16
2019-03-10T13:54:51.360Z,50.25
2019-03-10T13:57:20.582Z,51.61
2019-03-10T13:59:49.053Z,51.83
2019-03-10T14:02:17.645Z,51.35
2019-03-10T14:04:47.772Z,51.46
2019-03-10T14:07:16.297Z,53.81
2019-03-10T14:09:44.797Z,55.02
2019-03-10T14:12:13.267Z,55.33
2019-03-10T14:14:41.837Z,54.17
2019-03-10T14:17:14.718Z,54.49
2019-03-10T14:19:51.004Z,54.20
2019-03-10T14:22:19.285Z,53.65
2019-03-10T14:24:48.892Z,53.69
2019-03-10T14:27:17.435Z,54.25
2019-03-10T14:29:45.992Z,55.39
2019-03-10T14:32:14.778Z,55.10
2019-03-10T14:34:43.318Z,55.37
2019-03-10T14:37:11.795Z,55.86
2019-03-10T14:42:38.788Z,54.76
2019-03-10T14:45:15.220Z,54.49
2019-03-10T14:47:48.409Z,53.51
2019-03-10T14:50:20.272Z,53.59
2019-03-10T14:52:51.101Z,54.56
2019-03-10T14:55:21.214Z,55.42
2019-03-10T14:57:49.869Z,55.77
2019-03-10T15:00:28.831Z,55.50
2019-03-10T15:02:57.535Z,56.60
2019-03-10T15:05:26.135Z,56.99
2019-03-10T15:07:54.694Z,57.63
2019-03-10T15:10:23.381Z,57.25
2019-03-10T15:12:51.856Z,57.58
2019-03-10T15:15:23.013Z,58.27
2019-03-10T15:17:51.562Z,59.41
2019-03-10T15:20:21.565Z,60.02
2019-03-10T15:22:50.409Z,61.00
2019-03-10T15:25:21.072Z,61.30
2019-03-10T15:27:49.699Z,61.85
2019-03-10T15:30:26.287Z,61.92
2019-03-10T15:32:55.021Z,62.10
2019-03-10T15:35:25.388Z,62.45
2019-03-10T15:37:54.029Z,62.69
2019-03-10T15:40:25.468Z,62.89
2019-03-10T15:42:53.921Z,63.50
2019-03-10T15:45:22.579Z,63.65
2019-03-10T15:47:51.108Z,64.21
2019-03-10T15:50:22.660Z,64.32
2019-03-10T15:52:51.188Z,64.47
2019-03-10T15:55:19.895Z,65.01
2019-03-10T15:57:51.369Z,65.56
2019-03-10T16:00:24.428Z,66.12
2019-03-10T16:02:54.787Z,66.20
2019-03-10T16:05:23.449Z,67.09
2019-03-10T16:07:53.835Z,67.19
2019-03-10T16:10:22.627Z,67.28
2019-03-10T16:12:51.101Z,67.65
2019-03-10T16:15:30.147Z,67.91
2019-03-10T16:17:58.741Z,68.33
2019-03-10T16:20:27.294Z,68.25
2019-03-10T16:22:58.906Z,68.81
2019-03-10T16:25:37.947Z,68.32
2019-03-10T16:28:05.989Z,68.11
2019-03-10T16:30:37.068Z,68.79
2019-03-10T16:33:07.936Z,68.50
2019-03-10T16:35:36.442Z,68.17
2019-03-10T16:38:05.098Z,68.51
2019-03-10T16:40:34.782Z,69.21
2019-03-10T16:43:06.740Z,69.79
2019-03-10T16:45:37.157Z,69.80
2019-03-10T16:48:05.726Z,70.14
2019-03-10T16:50:34.287Z,70.81
2019-03-10T16:53:02.776Z,70.60
2019-03-10T16:55:31.348Z,70.93
2019-03-10T16:57:59.832Z,71.00
2019-03-10T17:00:28.396Z,71.14
2019-03-10T17:02:57.749Z,71.80
2019-03-10T17:05:27.912Z,71.66
2019-03-10T17:07:56.460Z,72.10
2019-03-10T17:10:28.169Z,71.98
2019-03-10T17:12:56.802Z,72.02
2019-03-10T17:15:26.017Z,72.25
2019-03-10T17:17:57.394Z,72.42
2019-03-10T17:20:27.388Z,72.66
2019-03-10T17:22:55.895Z,72.83
2019-03-10T17:25:24.498Z,73.18
2019-03-10T17:27:57.663Z,72.74
2019-03-10T17:30:29.695Z,72.52
2019-03-10T17:32:58.258Z,72.34
2019-03-10T17:35:26.813Z,73.00
2019-03-10T17:37:55.764Z,72.75
2019-03-10T17:40:26.299Z,72.75
2019-03-10T17:42:54.840Z,72.78
2019-03-10T17:45:24.549Z,72.50
2019-03-10T17:47:53.386Z,72.55
2019-03-10T17:50:22.011Z,72.45
2019-03-10T17:52:51.207Z,72.41
2019-03-10T17:55:20.956Z,72.74
2019-03-10T17:57:49.565Z,72.57
2019-03-10T18:00:26.586Z,72.57
2019-03-10T18:02:55.166Z,72.57
2019-03-10T18:05:28.735Z,72.79
2019-03-10T18:07:57.219Z,72.74
2019-03-10T18:10:25.699Z,72.89
2019-03-10T18:12:57.500Z,74.25
2019-03-10T18:15:26.435Z,73.05
2019-03-10T18:17:56.521Z,73.29
2019-03-10T18:20:26.890Z,73.34
2019-03-10T18:22:55.516Z,73.22
2019-03-10T18:25:25.798Z,73.50
2019-03-10T18:27:54.277Z,73.57
2019-03-10T18:30:25.037Z,73.76
2019-03-10T18:32:53.596Z,73.77
2019-03-10T18:35:24.117Z,73.70
2019-03-10T18:37:54.044Z,73.86
2019-03-10T18:40:26.660Z,73.91
2019-03-10T18:42:55.305Z,73.74
2019-03-10T18:45:27.166Z,73.79
2019-03-10T18:47:55.655Z,73.82
2019-03-10T18:50:28.186Z,73.95
2019-03-10T18:52:59.136Z,74.01
2019-03-10T18:55:27.681Z,73.95
2019-03-10T18:57:56.312Z,73.91
2019-03-10T19:00:26.152Z,73.76
2019-03-10T19:02:59.307Z,73.80
2019-03-10T19:05:25.291Z,73.80
2019-03-10T19:07:56.327Z,73.84
2019-03-10T19:10:26.179Z,73.77
2019-03-10T19:12:55.081Z,74.26
2019-03-10T19:15:27.841Z,74.06
2019-03-10T19:17:58.197Z,73.83
2019-03-10T19:20:27.284Z,74.44
2019-03-10T19:23:00.826Z,74.21
2019-03-10T19:25:32.454Z,74.35
2019-03-10T19:28:01.137Z,74.89
2019-03-10T19:30:29.894Z,75.00
2019-03-10T19:33:02.080Z,74.35
2019-03-10T19:35:30.587Z,74.33
2019-03-10T19:37:59.226Z,74.19
2019-03-10T19:40:27.815Z,73.89
2019-03-10T19:42:56.564Z,73.70
2019-03-10T19:45:26.801Z,73.78
2019-03-10T19:47:55.631Z,73.73
2019-03-10T19:50:28.234Z,73.51
2019-03-10T19:52:57.608Z,73.53
2019-03-10T19:55:26.538Z,73.29
2019-03-10T19:57:56.557Z,73.10
2019-03-10T20:00:26.367Z,73.16
2019-03-10T20:02:54.891Z,73.26
2019-03-10T20:05:28.569Z,73.20
2019-03-10T20:07:59.666Z,73.42
2019-03-10T20:10:31.198Z,72.50
2019-03-10T20:13:01.317Z,73.08
2019-03-10T20:15:29.886Z,73.17
2019-03-10T20:18:09.003Z,72.73
2019-03-10T20:20:42.837Z,72.70
2019-03-10T20:23:11.392Z,72.80
2019-03-10T20:25:41.598Z,72.67
2019-03-10T20:28:10.241Z,72.85
2019-03-10T20:30:40.316Z,72.72
2019-03-10T20:33:10.801Z,72.93
2019-03-10T20:35:39.518Z,72.85
2019-03-10T20:38:10.819Z,72.80
2019-03-10T20:40:39.333Z,72.69
2019-03-10T20:43:10.531Z,72.69
2019-03-10T20:45:39.093Z,73.18
2019-03-10T20:48:07.677Z,73.32
2019-03-10T20:50:38.094Z,73.39
2019-03-10T20:53:06.662Z,73.41
2019-03-10T20:55:35.318Z,73.38
2019-03-10T20:58:03.821Z,73.53
2019-03-10T21:00:32.375Z,73.79
2019-03-10T21:03:01.058Z,73.95
2019-03-10T21:06:12.235Z,74.02
2019-03-10T21:08:40.755Z,74.36
2019-03-10T21:11:15.149Z,74.51
2019-03-10T21:13:43.736Z,74.55
2019-03-10T21:16:12.330Z,74.77
2019-03-10T21:18:40.920Z,75.08
2019-03-10T21:21:09.387Z,74.97
2019-03-10T21:23:38.252Z,75.19
2019-03-10T21:26:08.437Z,75.14
2019-03-10T21:28:36.960Z,75.45
2019-03-10T21:31:05.437Z,75.72
2019-03-10T21:33:33.942Z,75.79
2019-03-10T21:36:02.396Z,75.84
2019-03-10T21:38:31.023Z,76.09
2019-03-10T21:40:59.769Z,75.71
2019-03-10T21:43:28.500Z,76.56
2019-03-10T21:45:58.569Z,76.33
2019-03-10T21:48:29.581Z,77.09
2019-03-10T21:50:58.260Z,77.47
2019-03-10T21:53:26.747Z,77.31
2019-03-10T21:55:55.248Z,77.42
2019-03-10T21:58:27.836Z,77.95
2019-03-10T22:00:56.315Z,77.60
2019-03-10T22:03:24.793Z,77.69
2019-03-10T22:05:56.031Z,77.22
2019-03-10T22:08:24.495Z,77.32
2019-03-10T22:10:55.961Z,77.35
2019-03-10T22:13:27.344Z,76.91
2019-03-10T22:15:55.846Z,76.82
2019-03-10T22:18:27.732Z,76.84
2019-03-10T22:20:57.161Z,76.95
2019-03-10T22:23:27.394Z,76.85
2019-03-10T22:25:55.956Z,76.67
2019-03-10T22:28:24.550Z,76.57
2019-03-10T22:30:57.918Z,76.58
2019-03-10T22:33:26.463Z,76.92
2019-03-10T22:35:56.921Z,76.94
2019-03-10T22:38:26.248Z,77.53
2019-03-10T22:40:57.320Z,77.48
2019-03-10T22:43:25.845Z,77.71
2019-03-10T22:45:58.920Z,77.62
2019-03-10T22:48:28.924Z,77.88
2019-03-10T22:50:57.514Z,77.87
2019-03-10T22:53:26.412Z,77.83
2019-03-10T22:55:55.892Z,77.99
2019-03-10T22:58:27.342Z,77.93
2019-03-10T23:00:58.604Z,77.69
2019-03-10T23:03:28.200Z,77.36
2019-03-10T23:05:56.764Z,77.69
2019-03-10T23:08:25.344Z,77.93
2019-03-10T23:10:53.820Z,77.80
2019-03-10T23:13:24.034Z,77.73
2019-03-10T23:15:52.512Z,77.50
2019-03-10T23:18:20.996Z,77.52
2019-03-10T23:20:49.519Z,77.46
2019-03-10T23:23:18.323Z,77.55
2019-03-10T23:25:49.544Z,77.82
2019-03-10T23:28:18.190Z,78.09
2019-03-10T23:30:46.654Z,77.82
2019-03-10T23:33:15.149Z,77.87
2019-03-10T23:35:43.655Z,77.76
2019-03-10T23:38:12.359Z,77.78
2019-03-10T23:40:40.847Z,77.91
2019-03-10T23:43:10.727Z,77.87
2019-03-10T23:45:39.882Z,77.59
2019-03-10T23:48:08.380Z,77.42
2019-03-10T23:50:36.970Z,77.49
2019-03-10T23:53:05.777Z,77.39
2019-03-10T23:55:34.405Z,77.52
2019-03-10T23:58:04.405Z,77.36
